Time;durP1;ratioP1;P1;durP2;ratioP2;P2;SDS_P1;SDS_P2;PMS_P1;PMS_P2;Temp;Humidity;BMP_temperature;BMP_pressure;BME280_temperature;BME280_humidity;BME280_pressure;Samples;Min_cycle;Max_cycle;Signal;HPM_P1;HPM_P2
2024/04/18 00:02:06;;;;;;;5.43;3.10;;;7.20;99.90;;;;;;5450090;26;20258;-69
2024/04/18 00:04:32;;;;;;;4.00;3.33;;;7.30;99.90;;;;;;5450485;26;20270;-69
2024/04/18 00:06:58;;;;;;;4.50;3.90;;;7.30;99.90;;;;;;5450474;26;20334;-69
2024/04/18 00:09:23;;;;;;;9.00;4.37;;;7.30;99.90;;;;;;5446180;26;20265;-69
2024/04/18 00:11:49;;;;;;;4.70;3.73;;;7.30;99.90;;;;;;5464912;26;20274;-69
2024/04/18 00:14:14;;;;;;;6.13;4.60;;;7.30;99.90;;;;;;5448677;26;20262;-69
2024/04/18 00:16:40;;;;;;;5.63;4.50;;;7.30;99.90;;;;;;5448162;26;20304;-69
2024/04/18 00:19:06;;;;;;;7.50;4.57;;;7.20;99.90;;;;;;5448227;26;20235;-69
2024/04/18 00:21:33;;;;;;;5.93;4.30;;;7.20;99.90;;;;;;5449289;26;20283;-69
2024/04/18 00:23:58;;;;;;;5.37;3.80;;;7.20;99.90;;;;;;5449961;26;20456;-69
2024/04/18 00:26:24;;;;;;;7.03;4.80;;;7.20;99.90;;;;;;5449883;26;20866;-69
2024/04/18 00:28:50;;;;;;;6.80;5.50;;;7.20;99.90;;;;;;5449902;26;20347;-69
2024/04/18 00:31:15;;;;;;;5.90;4.17;;;7.20;99.90;;;;;;5449387;26;20224;-70
2024/04/18 00:33:41;;;;;;;7.53;5.47;;;7.20;99.90;;;;;;5449764;26;20224;-69
2024/04/18 00:36:07;;;;;;;8.50;6.00;;;7.10;99.90;;;;;;5450059;26;20319;-69
2024/04/18 00:38:33;;;;;;;8.00;6.57;;;7.10;99.90;;;;;;5451631;26;20227;-69
2024/04/18 00:40:59;;;;;;;8.47;5.53;;;7.10;99.90;;;;;;5471095;26;20502;-69
2024/04/18 00:43:24;;;;;;;6.63;5.23;;;7.10;99.90;;;;;;5453680;26;20444;-69
2024/04/18 00:45:50;;;;;;;7.17;5.50;;;7.10;99.90;;;;;;5453702;26;20553;-69
2024/04/18 00:48:16;;;;;;;7.57;5.60;;;7.00;99.90;;;;;;5459855;26;20265;-69
2024/04/18 00:50:42;;;;;;;10.73;6.40;;;7.00;99.90;;;;;;5429632;26;20464;-69
2024/04/18 00:53:08;;;;;;;6.97;5.40;;;7.00;99.90;;;;;;5489562;26;20682;-69
2024/04/18 00:55:36;;;;;;;7.80;5.00;;;7.00;99.90;;;;;;5454543;26;20219;-69
2024/04/18 00:58:02;;;;;;;8.23;5.20;;;6.90;99.90;;;;;;5454730;26;20954;-69
2024/04/18 01:00:28;;;;;;;9.13;6.40;;;6.90;99.90;;;;;;5432484;26;20479;-69
2024/04/18 01:02:53;;;;;;;7.87;5.67;;;6.90;99.90;;;;;;5489723;26;20935;-69
2024/04/18 01:05:19;;;;;;;8.90;5.60;;;6.90;99.90;;;;;;5459404;26;20707;-69
2024/04/18 01:07:44;;;;;;;8.10;6.30;;;6.90;99.90;;;;;;5452909;26;20324;-69
2024/04/18 01:10:10;;;;;;;10.17;6.67;;;6.90;99.90;;;;;;5458466;26;20274;-69
2024/04/18 01:12:36;;;;;;;8.83;5.40;;;6.90;99.90;;;;;;5471766;26;20327;-69
2024/04/18 01:15:01;;;;;;;8.07;5.23;;;6.90;99.90;;;;;;5462949;26;20266;-69
2024/04/18 01:17:27;;;;;;;8.20;5.90;;;6.90;99.90;;;;;;5490288;26;20705;-69
2024/04/18 01:19:52;;;;;;;7.40;5.90;;;6.90;99.90;;;;;;5480865;26;20732;-69
2024/04/18 01:22:19;;;;;;;10.67;6.07;;;6.90;99.90;;;;;;5419885;26;20760;-69
2024/04/18 01:24:44;;;;;;;9.57;4.90;;;6.90;99.90;;;;;;5442731;26;20230;-69
2024/04/18 01:27:10;;;;;;;5.33;4.60;;;7.00;99.90;;;;;;5474278;26;20511;-69
2024/04/18 01:29:35;;;;;;;6.60;5.70;;;7.00;99.90;;;;;;5472726;26;20278;-69
2024/04/18 01:32:01;;;;;;;7.53;5.37;;;7.00;99.90;;;;;;5452546;26;20249;-69
2024/04/18 01:34:26;;;;;;;9.67;6.83;;;7.00;99.90;;;;;;5452276;26;20228;-69
2024/04/18 01:36:52;;;;;;;10.00;5.63;;;7.10;99.90;;;;;;5452649;26;20207;-69
2024/04/18 01:39:18;;;;;;;7.50;5.13;;;7.10;99.90;;;;;;5437289;26;20265;-69
2024/04/18 01:41:43;;;;;;;8.70;7.10;;;7.10;99.90;;;;;;5479302;26;20265;-69
2024/04/18 01:44:09;;;;;;;9.33;6.30;;;7.10;99.90;;;;;;5454496;26;20231;-69
2024/04/18 01:46:35;;;;;;;10.27;7.23;;;7.10;99.90;;;;;;5452838;26;20219;-70
2024/04/18 01:49:00;;;;;;;9.47;5.73;;;7.20;99.90;;;;;;5452312;26;20573;-69
2024/04/18 01:51:26;;;;;;;10.87;7.47;;;7.20;99.90;;;;;;5451805;26;20335;-69
2024/04/18 01:53:51;;;;;;;12.07;7.40;;;7.20;99.90;;;;;;5452521;26;20215;-69
2024/04/18 01:56:17;;;;;;;9.30;7.03;;;7.20;99.90;;;;;;5452256;26;20203;-68
2024/04/18 01:58:43;;;;;;;9.53;6.60;;;7.30;99.90;;;;;;5421342;26;20219;-69
2024/04/18 02:01:08;;;;;;;12.93;7.10;;;7.30;99.90;;;;;;5452065;26;20576;-69
2024/04/18 02:03:34;;;;;;;7.43;6.63;;;7.30;99.90;;;;;;5420831;26;20241;-69
2024/04/18 02:05:59;;;;;;;14.00;8.90;;;7.30;99.90;;;;;;5452295;26;20246;-69
2024/04/18 02:08:25;;;;;;;13.40;8.33;;;7.30;99.90;;;;;;5447982;26;20230;-69
2024/04/18 02:10:51;;;;;;;12.60;8.70;;;7.30;99.90;;;;;;5485377;26;20226;-69
2024/04/18 02:13:16;;;;;;;14.47;9.60;;;7.30;99.90;;;;;;5488393;26;20238;-69
2024/04/18 02:15:42;;;;;;;13.53;8.70;;;7.20;99.90;;;;;;5482935;26;20223;-69
2024/04/18 02:18:07;;;;;;;12.17;8.43;;;7.20;99.90;;;;;;5469989;26;20223;-69
2024/04/18 02:20:33;;;;;;;13.70;9.20;;;7.10;99.90;;;;;;5451189;26;20323;-69
2024/04/18 02:22:58;;;;;;;12.33;8.57;;;7.10;99.90;;;;;;5452003;26;20254;-69
2024/04/18 02:25:24;;;;;;;12.90;9.40;;;7.00;99.90;;;;;;5451982;26;20266;-69
2024/04/18 02:27:49;;;;;;;11.93;8.47;;;6.90;99.90;;;;;;5451472;26;20255;-69
2024/04/18 02:30:15;;;;;;;15.67;9.30;;;6.80;99.90;;;;;;5451997;26;20223;-69
2024/04/18 02:32:40;;;;;;;15.30;9.60;;;6.70;99.90;;;;;;5452351;26;20725;-69
2024/04/18 02:35:06;;;;;;;10.07;7.90;;;6.60;99.90;;;;;;5451632;26;20266;-69
2024/04/18 02:37:31;;;;;;;13.97;8.83;;;6.50;99.90;;;;;;5449632;26;20242;-69
2024/04/18 02:39:57;;;;;;;15.10;8.00;;;6.30;99.90;;;;;;5454989;26;20299;-69
2024/04/18 02:42:24;;;;;;;11.67;7.20;;;6.20;99.90;;;;;;5456141;26;20230;-69
2024/04/18 02:44:49;;;;;;;9.97;6.70;;;6.10;99.90;;;;;;5465506;26;20328;-69
2024/04/18 02:47:15;;;;;;;11.20;6.37;;;6.10;99.90;;;;;;5486349;26;20893;-69
2024/04/18 02:49:40;;;;;;;16.00;8.40;;;6.00;99.90;;;;;;5462525;26;20316;-69
2024/04/18 02:52:06;;;;;;;11.70;8.10;;;5.90;99.90;;;;;;5451367;26;20219;-69
2024/04/18 02:54:31;;;;;;;13.13;8.73;;;5.90;99.90;;;;;;5452782;26;20228;-69
2024/04/18 02:56:57;;;;;;;11.80;7.37;;;5.80;99.90;;;;;;5480467;26;20276;-69
2024/04/18 02:59:23;;;;;;;10.37;7.30;;;5.80;99.90;;;;;;5481809;26;20257;-69
2024/04/18 03:01:49;;;;;;;14.03;8.80;;;5.80;99.90;;;;;;5451096;26;20219;-69
2024/04/18 03:04:15;;;;;;;16.17;9.37;;;5.80;99.90;;;;;;5450301;26;20215;-69
2024/04/18 03:06:40;;;;;;;17.10;8.17;;;5.80;99.90;;;;;;5451312;26;20441;-69
2024/04/18 03:09:06;;;;;;;10.93;7.33;;;5.80;99.90;;;;;;5450415;26;20231;-69
2024/04/18 03:11:32;;;;;;;13.47;8.63;;;5.80;99.90;;;;;;5458619;26;20218;-69
2024/04/18 03:13:57;;;;;;;11.57;7.90;;;5.80;99.90;;;;;;5457610;26;21031;-69
2024/04/18 03:16:23;;;;;;;11.43;7.00;;;5.90;99.90;;;;;;5466516;26;20215;-69
2024/04/18 03:18:48;;;;;;;11.53;7.90;;;5.90;99.90;;;;;;5486535;26;20206;-69
2024/04/18 03:21:14;;;;;;;11.47;7.87;;;5.90;99.90;;;;;;5457059;26;20232;-69
2024/04/18 03:23:40;;;;;;;11.13;7.23;;;5.90;99.90;;;;;;5451320;26;20267;-69
2024/04/18 03:26:06;;;;;;;18.63;10.70;;;6.00;99.90;;;;;;5451071;26;20599;-69
2024/04/18 03:28:31;;;;;;;17.27;9.90;;;6.00;99.90;;;;;;5451390;26;20433;-69
2024/04/18 03:30:57;;;;;;;12.40;9.53;;;6.00;99.90;;;;;;5455030;26;20722;-69
2024/04/18 03:33:22;;;;;;;15.97;8.67;;;6.00;99.90;;;;;;5486498;26;20286;-69
2024/04/18 03:35:48;;;;;;;13.60;8.60;;;6.00;99.90;;;;;;5466068;26;20274;-69
2024/04/18 03:38:14;;;;;;;14.20;9.13;;;5.90;99.90;;;;;;5444301;26;20572;-69
2024/04/18 03:40:40;;;;;;;18.90;9.43;;;5.80;99.90;;;;;;5463395;26;20327;-69
2024/04/18 03:43:05;;;;;;;17.53;8.57;;;5.70;99.90;;;;;;5463559;26;21289;-69
2024/04/18 03:45:31;;;;;;;11.90;7.10;;;5.60;99.90;;;;;;5458578;26;20611;-69
2024/04/18 03:47:56;;;;;;;14.50;7.90;;;5.60;99.90;;;;;;5487265;26;20571;-69
2024/04/18 03:50:22;;;;;;;10.93;7.27;;;5.50;99.90;;;;;;5486625;26;20261;-69
2024/04/18 03:52:48;;;;;;;14.70;7.03;;;5.40;99.90;;;;;;5486941;26;20705;-69
2024/04/18 03:55:13;;;;;;;14.50;7.30;;;5.40;99.90;;;;;;5487179;26;20214;-69
2024/04/18 03:57:39;;;;;;;17.13;9.00;;;5.40;99.90;;;;;;5487578;26;20210;-69
2024/04/18 04:00:05;;;;;;;13.20;8.50;;;5.50;99.90;;;;;;5486916;26;20269;-69
2024/04/18 04:02:32;;;;;;;15.63;7.30;;;5.60;99.90;;;;;;5486995;26;20210;-69
2024/04/18 04:04:59;;;;;;;16.50;8.40;;;5.70;99.90;;;;;;5486953;26;20530;-69
2024/04/18 04:07:24;;;;;;;13.10;8.70;;;5.80;99.90;;;;;;5484379;26;20573;-69
2024/04/18 04:09:50;;;;;;;13.07;7.47;;;5.90;99.90;;;;;;5454381;26;20885;-69
2024/04/18 04:12:16;;;;;;;16.50;7.83;;;6.00;99.90;;;;;;5469243;26;20274;-69
2024/04/18 04:14:41;;;;;;;11.23;7.60;;;6.00;99.90;;;;;;5456392;26;20222;-69
2024/04/18 04:17:08;;;;;;;10.23;7.17;;;6.00;99.90;;;;;;5490199;26;20210;-69
2024/04/18 04:19:34;;;;;;;11.20;6.97;;;6.10;99.90;;;;;;5490060;26;20269;-69
2024/04/18 04:22:00;;;;;;;17.20;8.63;;;6.10;99.90;;;;;;5489412;26;20431;-69
2024/04/18 04:24:25;;;;;;;12.83;7.10;;;6.20;99.90;;;;;;5489786;26;20687;-69
2024/04/18 04:26:51;;;;;;;17.90;8.30;;;6.30;99.90;;;;;;5473205;26;20565;-68
2024/04/18 04:29:17;;;;;;;10.20;6.70;;;6.30;99.90;;;;;;5468480;26;20226;-69
2024/04/18 04:31:42;;;;;;;10.50;7.30;;;6.40;99.90;;;;;;5489422;26;20459;-69
2024/04/18 04:34:10;;;;;;;12.30;7.50;;;6.40;99.90;;;;;;5465115;26;20283;-69
2024/04/18 04:36:35;;;;;;;10.53;6.43;;;6.50;99.90;;;;;;5490225;26;20207;-69
2024/04/18 04:39:01;;;;;;;11.13;7.10;;;6.60;99.90;;;;;;5490504;26;20491;-69
2024/04/18 04:41:26;;;;;;;13.10;7.97;;;6.60;99.90;;;;;;5468849;26;20655;-69
2024/04/18 04:43:52;;;;;;;10.93;7.40;;;6.60;99.90;;;;;;5489624;26;20206;-69
2024/04/18 04:46:18;;;;;;;13.30;7.47;;;6.70;99.90;;;;;;5489858;26;20701;-69
2024/04/18 04:48:44;;;;;;;7.40;5.80;;;6.70;99.90;;;;;;5489495;26;20574;-69
2024/04/18 04:51:09;;;;;;;9.37;5.93;;;6.70;99.90;;;;;;5489348;26;20282;-69
2024/04/18 04:53:35;;;;;;;10.73;6.43;;;6.70;99.90;;;;;;5490039;26;20253;-69
2024/04/18 04:56:01;;;;;;;9.00;6.77;;;6.80;99.90;;;;;;5489511;26;20252;-69
2024/04/18 04:58:27;;;;;;;11.03;7.37;;;6.80;99.90;;;;;;5457734;26;20214;-69
2024/04/18 05:00:53;;;;;;;8.90;6.63;;;6.90;99.90;;;;;;5482655;26;20508;-69
2024/04/18 05:03:20;;;;;;;9.83;7.23;;;6.90;99.90;;;;;;5489321;26;20498;-69
2024/04/18 05:05:45;;;;;;;11.20;7.53;;;6.90;99.90;;;;;;5468467;26;20504;-70
2024/04/18 05:08:11;;;;;;;15.13;7.33;;;6.90;99.90;;;;;;5468590;26;20845;-69
2024/04/18 05:10:43;;;;;;;9.80;7.20;;;6.90;99.90;;;;;;5474112;26;20226;-69
2024/04/18 05:13:12;;;;;;;10.30;6.40;;;7.00;99.90;;;;;;5473432;26;20265;-69
2024/04/18 05:15:39;;;;;;;10.13;5.40;;;7.00;99.90;;;;;;5489212;26;20495;-69
2024/04/18 05:18:06;;;;;;;7.60;5.87;;;7.10;99.90;;;;;;5489517;26;20483;-69
2024/04/18 05:20:31;;;;;;;10.37;6.10;;;7.10;99.90;;;;;;5473407;26;20468;-70
2024/04/18 05:22:57;;;;;;;9.43;6.17;;;7.10;99.90;;;;;;5481275;26;20440;-70
2024/04/18 05:25:23;;;;;;;9.03;7.20;;;7.20;99.90;;;;;;5482219;26;20764;-70
2024/04/18 05:28:29;;;;;;;9.23;6.33;;;7.20;99.90;;;;;;5478803;26;20219;-70
2024/04/18 05:31:01;;;;;;;9.50;5.43;;;7.30;99.90;;;;;;5430034;26;20769;-70
2024/04/18 05:33:29;;;;;;;10.43;5.87;;;7.40;99.90;;;;;;5468461;26;20579;-70
2024/04/18 05:35:55;;;;;;;8.20;5.87;;;7.40;99.90;;;;;;5480042;26;20464;-69
2024/04/18 05:38:21;;;;;;;6.87;4.97;;;7.50;99.90;;;;;;5488534;26;20487;-69
2024/04/18 05:40:46;;;;;;;10.40;5.80;;;7.50;99.90;;;;;;5452102;26;21139;-70
2024/04/18 05:43:12;;;;;;;8.50;5.83;;;7.50;99.90;;;;;;5452852;26;20216;-70
2024/04/18 05:45:38;;;;;;;5.93;5.13;;;7.50;99.90;;;;;;5462293;26;20635;-70
2024/04/18 05:48:03;;;;;;;9.63;6.00;;;7.60;99.90;;;;;;5462354;26;20465;-70
2024/04/18 05:50:29;;;;;;;5.40;4.73;;;7.60;99.90;;;;;;5464321;26;20321;-69
2024/04/18 05:52:54;;;;;;;6.60;5.43;;;7.60;99.90;;;;;;5472160;26;20218;-70
2024/04/18 05:55:20;;;;;;;7.33;4.30;;;7.60;99.90;;;;;;5455622;26;20227;-70
2024/04/18 05:57:46;;;;;;;6.80;4.67;;;7.70;99.90;;;;;;5452646;26;20250;-69
2024/04/18 06:00:12;;;;;;;7.10;5.23;;;7.90;99.90;;;;;;5452240;26;20216;-69
2024/04/18 06:02:37;;;;;;;5.20;4.23;;;8.00;99.90;;;;;;5485059;26;20693;-69
2024/04/18 06:05:03;;;;;;;7.23;4.10;;;8.30;99.90;;;;;;5489036;26;20477;-69
2024/04/18 06:07:29;;;;;;;9.20;5.50;;;8.80;99.90;;;;;;5488331;26;20314;-69
2024/04/18 06:09:54;;;;;;;6.00;5.07;;;9.50;99.90;;;;;;5454884;26;20468;-69
2024/04/18 06:12:20;;;;;;;5.80;4.30;;;10.30;99.90;;;;;;5470615;26;20218;-70
2024/04/18 06:14:46;;;;;;;10.40;5.60;;;11.10;99.90;;;;;;5420605;26;20215;-69
2024/04/18 06:17:11;;;;;;;8.10;5.37;;;11.80;99.90;;;;;;5452396;26;20730;-70
2024/04/18 06:19:37;;;;;;;5.03;4.53;;;12.50;99.90;;;;;;5452385;26;20208;-69
2024/04/18 06:22:03;;;;;;;6.60;4.77;;;13.00;99.90;;;;;;5426530;26;20319;-69
2024/04/18 06:24:29;;;;;;;4.97;3.90;;;13.30;99.90;;;;;;5457370;26;20234;-70
2024/04/18 06:26:55;;;;;;;4.33;3.63;;;13.50;99.90;;;;;;5473831;26;20861;-70
2024/04/18 06:29:20;;;;;;;4.80;3.40;;;13.40;99.90;;;;;;5473573;26;20508;-70
2024/04/18 06:31:46;;;;;;;3.40;3.10;;;13.20;99.90;;;;;;5487989;26;20264;-70
2024/04/18 06:34:11;;;;;;;4.13;3.40;;;12.80;99.90;;;;;;5474576;26;20208;-70
2024/04/18 06:36:37;;;;;;;3.83;3.30;;;12.40;99.90;;;;;;5473664;26;20264;-69
2024/04/18 06:39:03;;;;;;;3.67;3.33;;;12.00;99.90;;;;;;5487072;26;20215;-70
2024/04/18 06:41:28;;;;;;;4.23;3.60;;;11.70;99.90;;;;;;5487867;26;20226;-70
2024/04/18 06:43:54;;;;;;;3.47;3.10;;;11.50;99.90;;;;;;5453060;26;20219;-70
2024/04/18 06:46:19;;;;;;;3.67;3.30;;;11.30;99.90;;;;;;5451913;26;20652;-70
2024/04/18 06:48:45;;;;;;;5.20;3.50;;;11.20;99.90;;;;;;5451505;26;20264;-70
2024/04/18 06:51:10;;;;;;;3.80;3.10;;;11.30;99.90;;;;;;5451310;26;20227;-70
2024/04/18 06:53:36;;;;;;;3.60;3.30;;;12.10;99.90;;;;;;5451764;26;20234;-70
2024/04/18 06:56:02;;;;;;;4.30;3.90;;;13.10;99.90;;;;;;5448847;26;20242;-72
2024/04/18 06:58:27;;;;;;;4.03;3.63;;;14.30;99.90;;;;;;5469632;26;20695;-70
2024/04/18 07:00:53;;;;;;;3.43;2.80;;;15.70;99.90;;;;;;5469341;26;20272;-70
2024/04/18 07:03:18;;;;;;;4.60;3.00;;;17.10;99.90;;;;;;5488135;26;20257;-71
2024/04/18 07:05:44;;;;;;;3.17;2.97;;;18.60;99.90;;;;;;5467096;26;20691;-70
2024/04/18 07:08:10;;;;;;;3.90;2.80;;;20.10;99.90;;;;;;5459918;26;20217;-70
2024/04/18 07:10:36;;;;;;;3.23;2.20;;;21.50;91.30;;;;;;5455497;26;20222;-70
2024/04/18 07:13:02;;;;;;;3.20;2.20;;;22.60;77.90;;;;;;5457814;26;20499;-70
2024/04/18 07:15:27;;;;;;;2.50;2.30;;;23.80;64.50;;;;;;5446325;26;20324;-71
2024/04/18 07:17:54;;;;;;;4.90;2.87;;;24.90;59.00;;;;;;5425129;26;21266;-71
2024/04/18 07:20:21;;;;;;;4.33;2.87;;;25.80;52.20;;;;;;5429737;26;20656;-71
2024/04/18 07:22:46;;;;;;;3.40;2.03;;;26.60;48.90;;;;;;5439926;26;20452;-71
2024/04/18 07:25:12;;;;;;;5.87;1.93;;;27.10;46.20;;;;;;5472401;26;20509;-71
2024/04/18 07:27:37;;;;;;;2.70;2.20;;;27.80;43.00;;;;;;5473272;26;20217;-71
2024/04/18 07:30:04;;;;;;;2.50;2.30;;;28.50;40.80;;;;;;5487345;26;20218;-68
2024/04/18 07:32:29;;;;;;;2.03;1.50;;;29.20;39.00;;;;;;5487604;26;20240;-69
2024/04/18 07:34:55;;;;;;;1.90;1.53;;;29.90;37.90;;;;;;5460036;26;20462;-68
2024/04/18 07:37:21;;;;;;;6.17;2.30;;;30.60;36.70;;;;;;5465347;26;20278;-69
2024/04/18 07:39:46;;;;;;;1.80;1.70;;;30.80;34.20;;;;;;5472180;26;20223;-68
2024/04/18 07:42:12;;;;;;;6.13;3.00;;;30.50;33.50;;;;;;5486930;26;20252;-69
2024/04/18 07:44:39;;;;;;;6.40;2.90;;;30.10;32.50;;;;;;5487100;26;20211;-69
2024/04/18 07:47:06;;;;;;;2.97;2.37;;;29.90;32.30;;;;;;5487471;26;20556;-68
2024/04/18 07:49:32;;;;;;;5.23;2.43;;;29.90;32.70;;;;;;5488897;26;21034;-69
2024/04/18 07:51:57;;;;;;;4.17;2.00;;;30.00;32.40;;;;;;5490288;26;20463;-69
2024/04/18 07:54:23;;;;;;;3.10;2.37;;;30.00;32.10;;;;;;5490847;26;20252;-69
2024/04/18 07:56:48;;;;;;;2.03;1.90;;;30.20;32.30;;;;;;5490809;26;20206;-69
2024/04/18 07:59:15;;;;;;;3.50;2.90;;;30.20;31.60;;;;;;5465943;26;20228;-69
2024/04/18 08:01:41;;;;;;;3.30;2.27;;;29.60;32.00;;;;;;5476849;26;20573;-68
2024/04/18 08:04:07;;;;;;;6.60;2.50;;;29.50;32.10;;;;;;5453724;26;20442;-67
2024/04/18 08:06:33;;;;;;;2.90;2.63;;;29.40;31.80;;;;;;5472971;26;20230;-73
2024/04/18 08:08:59;;;;;;;2.10;2.00;;;29.10;32.30;;;;;;5462610;26;20461;-69
2024/04/18 08:11:25;;;;;;;2.87;2.57;;;28.80;32.50;;;;;;5471799;26;20263;-68
2024/04/18 08:13:51;;;;;;;2.70;2.17;;;29.20;33.30;;;;;;5487163;26;20434;-68
2024/04/18 08:16:17;;;;;;;6.00;2.37;;;29.60;32.30;;;;;;5469977;26;20563;-68
2024/04/18 08:18:42;;;;;;;2.40;2.20;;;29.40;31.90;;;;;;5490377;26;20554;-68
2024/04/18 08:21:08;;;;;;;2.53;2.10;;;28.60;31.10;;;;;;5489818;26;20511;-68
2024/04/18 08:23:34;;;;;;;3.20;1.90;;;28.10;32.40;;;;;;5490354;26;20245;-68
2024/04/18 08:26:00;;;;;;;2.50;2.07;;;28.40;32.80;;;;;;5490495;26;20253;-69
2024/04/18 08:28:25;;;;;;;2.30;1.77;;;29.30;33.00;;;;;;5490180;26;20950;-69
2024/04/18 08:30:51;;;;;;;2.93;2.40;;;30.30;32.50;;;;;;5489927;26;20249;-69
2024/04/18 08:33:17;;;;;;;2.50;1.67;;;31.40;31.00;;;;;;5475206;26;20216;-67
2024/04/18 08:35:43;;;;;;;3.33;1.80;;;32.50;30.40;;;;;;5475112;26;20214;-68
2024/04/18 08:38:09;;;;;;;2.80;1.97;;;32.20;29.00;;;;;;5470270;26;20329;-68
2024/04/18 08:40:36;;;;;;;4.07;2.47;;;32.00;29.10;;;;;;5474062;26;20465;-70
2024/04/18 08:43:02;;;;;;;2.30;2.10;;;32.80;28.70;;;;;;5467478;26;20776;-69
2024/04/18 08:45:34;;;;;;;2.53;2.27;;;32.50;28.10;;;;;;5452967;26;20452;-68
2024/04/18 08:48:00;;;;;;;2.90;1.90;;;31.50;27.80;;;;;;5453483;26;20258;-67
2024/04/18 08:50:28;;;;;;;3.63;2.60;;;30.40;28.00;;;;;;5468092;26;20986;-68
2024/04/18 08:52:55;;;;;;;2.03;1.93;;;29.80;29.10;;;;;;5469429;26;20456;-69
2024/04/18 08:55:22;;;;;;;5.33;2.07;;;31.30;29.30;;;;;;5453327;26;20445;-69
2024/04/18 08:57:52;;;;;;;2.93;1.33;;;33.40;27.80;;;;;;5453040;26;20567;-69
2024/04/18 09:00:18;;;;;;;4.23;2.10;;;35.80;27.10;;;;;;5451740;26;21046;-68
2024/04/18 09:02:44;;;;;;;3.63;2.03;;;37.80;25.20;;;;;;5452880;26;20513;-69
2024/04/18 09:05:10;;;;;;;3.30;1.70;;;39.40;23.50;;;;;;5468637;26;20219;-70
2024/04/18 09:07:35;;;;;;;4.93;2.30;;;40.80;22.90;;;;;;5453379;26;20489;-69
2024/04/18 09:10:06;;;;;;;1.80;1.30;;;40.30;21.70;;;;;;5489306;26;20269;-69
2024/04/18 09:12:31;;;;;;;3.13;1.50;;;41.00;21.60;;;;;;5488040;26;20210;-70
2024/04/18 09:14:57;;;;;;;1.53;1.43;;;42.30;21.10;;;;;;5452613;26;20489;-69
2024/04/18 09:17:22;;;;;;;3.07;1.50;;;43.90;20.90;;;;;;5452996;26;20224;-69
2024/04/18 09:19:48;;;;;;;1.80;1.70;;;45.20;19.80;;;;;;5452869;26;20223;-69
2024/04/18 09:22:14;;;;;;;1.77;1.60;;;46.10;19.30;;;;;;5452635;26;20219;-70
2024/04/18 09:24:44;;;;;;;4.80;2.20;;;46.90;18.50;;;;;;5452620;26;20274;-69
2024/04/18 09:27:10;;;;;;;2.10;1.90;;;45.80;17.40;;;;;;5452985;26;20441;-68
2024/04/18 09:29:36;;;;;;;1.87;1.40;;;43.10;17.00;;;;;;5452788;26;20493;-69
2024/04/18 09:32:03;;;;;;;4.13;1.40;;;40.70;17.70;;;;;;5452375;26;20436;-68
2024/04/18 09:34:30;;;;;;;2.63;1.60;;;38.50;18.60;;;;;;5446406;26;20258;-69
2024/04/18 09:37:02;;;;;;;4.63;2.03;;;36.90;19.80;;;;;;5419915;26;20485;-69
2024/04/18 09:39:28;;;;;;;4.13;2.67;;;36.40;21.00;;;;;;5452553;26;20803;-69
2024/04/18 09:42:04;;;;;;;4.27;2.10;;;35.30;20.80;;;;;;5452178;26;20515;-68
2024/04/18 09:44:32;;;;;;;3.97;2.20;;;34.00;21.30;;;;;;5452932;26;20568;-68
2024/04/18 09:46:58;;;;;;;3.17;2.00;;;32.10;21.90;;;;;;5452717;26;21011;-68
2024/04/18 09:49:25;;;;;;;3.10;2.53;;;30.20;23.20;;;;;;5452567;26;20448;-68
2024/04/18 09:51:52;;;;;;;3.67;1.80;;;28.40;24.20;;;;;;5451970;26;20465;-68
2024/04/18 09:54:19;;;;;;;2.70;2.33;;;26.60;25.30;;;;;;5452497;26;20524;-71
2024/04/18 09:56:47;;;;;;;3.43;1.83;;;26.10;27.80;;;;;;5437899;26;20569;-71
2024/04/18 09:59:15;;;;;;;2.20;1.57;;;28.40;29.00;;;;;;5452518;26;20517;-69
2024/04/18 10:01:42;;;;;;;3.20;1.83;;;31.80;27.40;;;;;;5451974;26;20453;-68
2024/04/18 10:04:08;;;;;;;3.53;1.97;;;33.80;24.40;;;;;;5447385;26;20780;-68
2024/04/18 10:06:36;;;;;;;4.70;2.80;;;33.30;23.40;;;;;;5432387;26;20446;-68
2024/04/18 10:09:05;;;;;;;4.53;2.20;;;32.60;23.20;;;;;;5473821;26;20451;-68
2024/04/18 10:11:32;;;;;;;2.47;2.03;;;34.00;23.90;;;;;;5487820;26;20455;-69
2024/04/18 10:14:01;;;;;;;1.97;1.80;;;36.70;23.20;;;;;;5488916;26;20444;-69
2024/04/18 10:16:28;;;;;;;3.70;2.37;;;39.30;21.40;;;;;;5456731;26;20511;-69
2024/04/18 10:18:55;;;;;;;5.00;2.00;;;39.50;19.80;;;;;;5488740;26;20424;-68
2024/04/18 10:21:21;;;;;;;2.23;2.03;;;37.80;19.20;;;;;;5488337;26;20451;-68
2024/04/18 10:23:49;;;;;;;2.00;1.80;;;35.80;20.00;;;;;;5488676;26;20207;-68
2024/04/18 10:26:16;;;;;;;4.63;1.70;;;33.90;20.90;;;;;;5439347;26;20267;-68
2024/04/18 10:28:42;;;;;;;2.20;1.70;;;32.10;21.70;;;;;;5439387;26;20502;-68
2024/04/18 10:31:08;;;;;;;3.00;1.70;;;30.30;22.60;;;;;;5451471;26;20509;-68
2024/04/18 10:33:38;;;;;;;1.87;1.60;;;29.00;23.80;;;;;;5465771;26;20447;-68
2024/04/18 10:36:09;;;;;;;7.20;1.70;;;29.50;25.30;;;;;;5458552;26;20567;-68
2024/04/18 10:38:35;;;;;;;7.90;1.77;;;31.90;25.30;;;;;;5477272;26;20444;-67
2024/04/18 10:41:04;;;;;;;2.33;1.50;;;33.30;23.30;;;;;;5466619;26;20449;-68
2024/04/18 10:43:32;;;;;;;2.07;1.50;;;32.40;22.50;;;;;;5484440;26;20218;-67
2024/04/18 10:46:00;;;;;;;3.00;1.40;;;30.70;22.60;;;;;;5468972;26;20460;-67
2024/04/18 10:48:26;;;;;;;2.03;1.50;;;29.70;23.80;;;;;;5487866;26;20464;-67
2024/04/18 10:50:52;;;;;;;3.47;1.43;;;31.40;24.80;;;;;;5487704;26;20970;-68
2024/04/18 10:53:19;;;;;;;1.67;1.20;;;34.40;24.30;;;;;;5456172;26;20440;-68
2024/04/18 10:55:45;;;;;;;3.93;1.67;;;37.30;22.30;;;;;;5488220;26;20482;-68
2024/04/18 10:58:17;;;;;;;1.60;1.23;;;39.60;20.80;;;;;;5488193;26;20435;-68
2024/04/18 11:00:43;;;;;;;2.57;1.60;;;41.70;19.60;;;;;;5471482;26;20227;-68
2024/04/18 11:03:09;;;;;;;1.73;1.30;;;43.60;18.80;;;;;;5478633;26;20448;-69
2024/04/18 11:05:37;;;;;;;2.00;1.40;;;45.30;17.60;;;;;;5488096;26;21030;-68
2024/04/18 11:08:04;;;;;;;2.23;1.50;;;46.50;16.50;;;;;;5455607;26;20463;-68
2024/04/18 11:10:31;;;;;;;1.77;1.20;;;47.60;16.10;;;;;;5475677;26;20449;-68
2024/04/18 11:12:57;;;;;;;1.30;1.20;;;48.40;15.50;;;;;;5472850;26;20432;-69
2024/04/18 11:15:23;;;;;;;1.90;1.40;;;48.90;15.00;;;;;;5487972;26;21019;-69
2024/04/18 11:17:49;;;;;;;2.77;1.30;;;47.70;14.00;;;;;;5455676;26;20463;-68
2024/04/18 11:20:15;;;;;;;1.50;1.30;;;44.80;13.60;;;;;;5475780;26;20430;-68
2024/04/18 11:22:40;;;;;;;2.40;1.40;;;43.40;14.60;;;;;;5433466;26;21004;-68
2024/04/18 11:25:12;;;;;;;1.50;1.20;;;43.90;15.40;;;;;;5449691;26;20223;-68
2024/04/18 11:27:38;;;;;;;1.40;1.30;;;45.30;15.30;;;;;;5454827;26;20358;-68
2024/04/18 11:30:08;;;;;;;2.27;1.50;;;46.90;15.40;;;;;;5471960;26;20440;-69
2024/04/18 11:32:33;;;;;;;1.57;1.40;;;48.40;15.30;;;;;;5487573;26;20488;-68
2024/04/18 11:35:05;;;;;;;1.73;1.47;;;47.70;14.00;;;;;;5466399;26;20427;-68
2024/04/18 11:37:37;;;;;;;2.33;1.63;;;46.30;14.10;;;;;;5468429;26;20231;-69
2024/04/18 11:40:09;;;;;;;3.00;1.37;;;46.80;14.40;;;;;;5465416;26;20793;-68
2024/04/18 11:42:35;;;;;;;2.33;1.57;;;47.80;14.10;;;;;;5472464;26;20967;-68
2024/04/18 11:45:00;;;;;;;1.50;1.40;;;48.90;13.80;;;;;;5487447;26;20416;-69
2024/04/18 11:47:26;;;;;;;1.53;1.30;;;49.50;13.40;;;;;;5471874;26;20223;-69
2024/04/18 11:49:52;;;;;;;3.57;1.70;;;49.00;13.60;;;;;;5455456;26;20230;-69
2024/04/18 11:52:17;;;;;;;2.00;1.87;;;49.70;13.80;;;;;;5486770;26;20440;-69
2024/04/18 11:54:43;;;;;;;1.70;1.60;;;49.70;13.00;;;;;;5487116;26;20794;-69
2024/04/18 11:57:09;;;;;;;1.40;1.30;;;46.80;12.00;;;;;;5485319;26;20281;-69
2024/04/18 11:59:37;;;;;;;1.80;1.20;;;43.40;12.70;;;;;;5440473;26;20667;-69
2024/04/18 12:02:04;;;;;;;1.90;1.37;;;42.50;14.40;;;;;;5454693;26;20261;-69
2024/04/18 12:04:29;;;;;;;2.50;1.10;;;43.70;14.80;;;;;;5455018;26;20802;-69
2024/04/18 12:06:55;;;;;;;1.77;1.20;;;45.60;14.00;;;;;;5486928;26;20490;-69
2024/04/18 12:09:20;;;;;;;1.60;1.40;;;47.20;13.80;;;;;;5454837;26;20278;-69
2024/04/18 12:11:46;;;;;;;2.10;1.50;;;47.90;13.20;;;;;;5477593;26;20278;-69
2024/04/18 12:14:12;;;;;;;1.20;1.10;;;48.70;12.90;;;;;;5430509;26;20229;-69
2024/04/18 12:16:38;;;;;;;1.30;1.20;;;49.30;12.90;;;;;;5447674;26;20339;-69
2024/04/18 12:19:03;;;;;;;2.17;1.30;;;47.00;12.10;;;;;;5450725;26;20860;-69
2024/04/18 12:21:29;;;;;;;2.03;1.83;;;44.50;12.70;;;;;;5437464;26;20223;-69
2024/04/18 12:23:54;;;;;;;1.43;1.30;;;44.40;13.70;;;;;;5436160;26;20558;-69
2024/04/18 12:26:20;;;;;;;1.83;1.27;;;45.80;13.80;;;;;;5459705;26;20557;-69
2024/04/18 12:28:46;;;;;;;1.50;1.40;;;47.10;13.50;;;;;;5469985;26;20219;-69
2024/04/18 12:31:11;;;;;;;1.37;1.20;;;48.70;13.40;;;;;;5485857;26;20223;-69
2024/04/18 12:33:37;;;;;;;1.87;1.67;;;50.10;13.20;;;;;;5483756;26;20467;-69
2024/04/18 12:36:03;;;;;;;1.63;1.40;;;51.40;13.10;;;;;;5426863;26;20243;-69
2024/04/18 12:38:28;;;;;;;2.70;1.10;;;51.30;12.60;;;;;;5448233;26;20273;-69
2024/04/18 12:40:54;;;;;;;1.43;1.33;;;48.90;11.30;;;;;;5452621;26;21042;-69
2024/04/18 12:43:19;;;;;;;1.30;1.10;;;45.30;11.20;;;;;;5436879;26;20224;-69